Elliott, North Dakota
Current Conditions -  °F | °C
As of 1:55 AM on Thursday 23 Oct 2014 (Local Time) from KGWR Reporting Station
Clear Clear  
Wind Chill: 42°   Ceiling: Unl
Heat Index: 46°   Visibility: 10mi
Dew Point: 46°   Wind: 8mph
Humidity: 100%   Direction: 230°SW
Pressure: 29.93"   Gusts: NA
Location:  46.3578°N, 97.5659°W
Report Text: KGWR 230655Z AUTO 23007KT 10SM CLR 08/08 A2993 RMK A01 P000
Loading
Personal Weather Stations






























Interactive Weather Map
Tropical Storm Tracking
New forecast layout! Learn more

10-Day Weather Forecast

Advertisements
Track Severe Weather on mobile